sensor_id;sensor_type;location;lat;lon;timestamp;P1;durP1;ratioP1;P2;durP2;ratioP2
26820;SDS011;37186;51.394;5.454;2022-10-16T00:00:26;7.30;;;7.10;;
26820;SDS011;37186;51.394;5.454;2022-10-16T00:03:26;7.30;;;7.10;;
26820;SDS011;37186;51.394;5.454;2022-10-16T00:06:27;7.30;;;7.10;;
26820;SDS011;37186;51.394;5.454;2022-10-16T00:09:28;7.47;;;7.28;;
26820;SDS011;37186;51.394;5.454;2022-10-16T00:12:29;7.72;;;7.53;;
26820;SDS011;37186;51.394;5.454;2022-10-16T00:15:29;7.35;;;7.15;;
26820;SDS011;37186;51.394;5.454;2022-10-16T00:18:32;7.40;;;7.20;;
26820;SDS011;37186;51.394;5.454;2022-10-16T00:21:33;7.63;;;7.43;;
26820;SDS011;37186;51.394;5.454;2022-10-16T00:24:34;7.70;;;7.50;;
26820;SDS011;37186;51.394;5.454;2022-10-16T00:27:36;7.50;;;7.30;;
26820;SDS011;37186;51.394;5.454;2022-10-16T00:30:39;7.38;;;7.18;;
26820;SDS011;37186;51.394;5.454;2022-10-16T00:33:40;7.53;;;7.32;;
26820;SDS011;37186;51.394;5.454;2022-10-16T00:36:41;7.50;;;7.30;;
26820;SDS011;37186;51.394;5.454;2022-10-16T00:39:41;7.40;;;7.20;;
26820;SDS011;37186;51.394;5.454;2022-10-16T00:42:42;7.57;;;7.38;;
26820;SDS011;37186;51.394;5.454;2022-10-16T00:45:42;7.60;;;7.40;;
26820;SDS011;37186;51.394;5.454;2022-10-16T00:48:45;7.40;;;7.20;;
26820;SDS011;37186;51.394;5.454;2022-10-16T00:51:51;7.95;;;7.75;;
26820;SDS011;37186;51.394;5.454;2022-10-16T00:54:53;7.55;;;7.35;;
26820;SDS011;37186;51.394;5.454;2022-10-16T00:57:55;7.40;;;7.20;;
26820;SDS011;37186;51.394;5.454;2022-10-16T01:00:56;7.22;;;7.03;;
26820;SDS011;37186;51.394;5.454;2022-10-16T01:03:56;7.30;;;7.10;;
26820;SDS011;37186;51.394;5.454;2022-10-16T01:07:11;7.82;;;7.63;;
26820;SDS011;37186;51.394;5.454;2022-10-16T01:13:46;7.15;;;6.95;;
26820;SDS011;37186;51.394;5.454;2022-10-16T01:16:53;7.43;;;7.22;;
26820;SDS011;37186;51.394;5.454;2022-10-16T01:20:20;7.38;;;7.18;;
26820;SDS011;37186;51.394;5.454;2022-10-16T01:27:04;7.68;;;7.47;;
26820;SDS011;37186;51.394;5.454;2022-10-16T01:30:15;7.28;;;7.07;;
26820;SDS011;37186;51.394;5.454;2022-10-16T01:33:18;7.28;;;7.07;;
26820;SDS011;37186;51.394;5.454;2022-10-16T01:36:23;7.30;;;7.10;;
26820;SDS011;37186;51.394;5.454;2022-10-16T01:39:29;7.32;;;7.13;;
26820;SDS011;37186;51.394;5.454;2022-10-16T01:42:35;7.65;;;7.45;;
26820;SDS011;37186;51.394;5.454;2022-10-16T01:45:39;7.47;;;7.28;;
26820;SDS011;37186;51.394;5.454;2022-10-16T01:48:41;7.90;;;7.70;;
26820;SDS011;37186;51.394;5.454;2022-10-16T01:51:42;7.50;;;7.30;;
26820;SDS011;37186;51.394;5.454;2022-10-16T01:54:46;7.63;;;7.43;;
26820;SDS011;37186;51.394;5.454;2022-10-16T01:57:49;7.45;;;7.25;;
26820;SDS011;37186;51.394;5.454;2022-10-16T02:00:52;7.30;;;7.10;;
26820;SDS011;37186;51.394;5.454;2022-10-16T02:03:55;7.95;;;7.75;;
26820;SDS011;37186;51.394;5.454;2022-10-16T02:06:58;8.00;;;7.80;;
26820;SDS011;37186;51.394;5.454;2022-10-16T02:10:00;7.65;;;7.45;;
26820;SDS011;37186;51.394;5.454;2022-10-16T02:13:11;7.55;;;7.35;;
26820;SDS011;37186;51.394;5.454;2022-10-16T02:16:32;7.25;;;7.05;;
26820;SDS011;37186;51.394;5.454;2022-10-16T02:19:39;7.78;;;7.57;;
26820;SDS011;37186;51.394;5.454;2022-10-16T02:22:45;7.28;;;7.07;;
26820;SDS011;37186;51.394;5.454;2022-10-16T02:25:49;7.35;;;7.15;;
26820;SDS011;37186;51.394;5.454;2022-10-16T02:28:53;7.55;;;7.35;;
26820;SDS011;37186;51.394;5.454;2022-10-16T02:31:59;7.10;;;6.90;;
26820;SDS011;37186;51.394;5.454;2022-10-16T02:35:02;7.65;;;7.45;;
26820;SDS011;37186;51.394;5.454;2022-10-16T02:38:04;7.20;;;7.00;;
26820;SDS011;37186;51.394;5.454;2022-10-16T02:41:05;7.40;;;7.20;;
26820;SDS011;37186;51.394;5.454;2022-10-16T02:44:06;7.57;;;7.38;;
26820;SDS011;37186;51.394;5.454;2022-10-16T02:47:07;7.53;;;7.32;;
26820;SDS011;37186;51.394;5.454;2022-10-16T02:50:07;7.43;;;7.23;;
26820;SDS011;37186;51.394;5.454;2022-10-16T02:53:08;7.28;;;7.07;;
26820;SDS011;37186;51.394;5.454;2022-10-16T02:56:09;7.20;;;7.00;;
26820;SDS011;37186;51.394;5.454;2022-10-16T02:59:09;7.32;;;7.13;;
26820;SDS011;37186;51.394;5.454;2022-10-16T03:02:10;7.28;;;7.07;;
26820;SDS011;37186;51.394;5.454;2022-10-16T03:05:10;7.18;;;6.97;;
26820;SDS011;37186;51.394;5.454;2022-10-16T03:08:11;7.32;;;7.13;;
26820;SDS011;37186;51.394;5.454;2022-10-16T03:11:13;7.70;;;7.50;;
26820;SDS011;37186;51.394;5.454;2022-10-16T03:14:13;7.43;;;7.22;;
26820;SDS011;37186;51.394;5.454;2022-10-16T03:17:14;7.00;;;6.80;;
26820;SDS011;37186;51.394;5.454;2022-10-16T03:20:16;7.72;;;7.53;;
26820;SDS011;37186;51.394;5.454;2022-10-16T03:23:17;7.23;;;7.03;;
26820;SDS011;37186;51.394;5.454;2022-10-16T03:26:17;7.15;;;6.95;;
26820;SDS011;37186;51.394;5.454;2022-10-16T03:29:18;7.68;;;7.47;;
26820;SDS011;37186;51.394;5.454;2022-10-16T03:32:18;7.50;;;7.30;;
26820;SDS011;37186;51.394;5.454;2022-10-16T03:35:20;7.75;;;7.55;;
26820;SDS011;37186;51.394;5.454;2022-10-16T03:38:21;7.90;;;7.70;;
26820;SDS011;37186;51.394;5.454;2022-10-16T03:41:22;7.47;;;7.27;;
26820;SDS011;37186;51.394;5.454;2022-10-16T03:44:22;7.25;;;7.05;;
26820;SDS011;37186;51.394;5.454;2022-10-16T03:47:23;7.25;;;7.05;;
26820;SDS011;37186;51.394;5.454;2022-10-16T03:50:23;7.80;;;7.60;;
26820;SDS011;37186;51.394;5.454;2022-10-16T03:53:24;7.70;;;7.50;;
26820;SDS011;37186;51.394;5.454;2022-10-16T03:56:24;7.43;;;7.22;;
26820;SDS011;37186;51.394;5.454;2022-10-16T03:59:25;7.65;;;7.45;;
26820;SDS011;37186;51.394;5.454;2022-10-16T04:02:25;7.65;;;7.45;;
26820;SDS011;37186;51.394;5.454;2022-10-16T04:05:26;8.38;;;8.18;;
26820;SDS011;37186;51.394;5.454;2022-10-16T04:08:26;8.05;;;7.85;;
26820;SDS011;37186;51.394;5.454;2022-10-16T04:11:27;8.10;;;7.90;;
26820;SDS011;37186;51.394;5.454;2022-10-16T04:14:27;7.50;;;7.30;;
26820;SDS011;37186;51.394;5.454;2022-10-16T04:17:28;7.90;;;7.70;;
26820;SDS011;37186;51.394;5.454;2022-10-16T04:20:28;8.38;;;8.18;;
26820;SDS011;37186;51.394;5.454;2022-10-16T04:23:29;7.90;;;7.70;;
26820;SDS011;37186;51.394;5.454;2022-10-16T04:26:30;7.70;;;7.50;;
26820;SDS011;37186;51.394;5.454;2022-10-16T04:29:31;7.43;;;7.22;;
26820;SDS011;37186;51.394;5.454;2022-10-16T04:32:31;7.80;;;7.60;;
26820;SDS011;37186;51.394;5.454;2022-10-16T04:35:32;8.17;;;7.97;;
26820;SDS011;37186;51.394;5.454;2022-10-16T04:38:33;7.95;;;7.75;;
26820;SDS011;37186;51.394;5.454;2022-10-16T04:41:33;7.93;;;7.72;;
26820;SDS011;37186;51.394;5.454;2022-10-16T04:44:34;8.20;;;8.00;;
26820;SDS011;37186;51.394;5.454;2022-10-16T04:47:34;7.88;;;7.68;;
26820;SDS011;37186;51.394;5.454;2022-10-16T04:50:35;8.10;;;7.90;;
26820;SDS011;37186;51.394;5.454;2022-10-16T04:53:35;7.70;;;7.50;;
26820;SDS011;37186;51.394;5.454;2022-10-16T04:56:36;8.00;;;7.80;;
26820;SDS011;37186;51.394;5.454;2022-10-16T04:59:43;8.02;;;7.82;;
26820;SDS011;37186;51.394;5.454;2022-10-16T05:02:43;8.10;;;7.90;;
26820;SDS011;37186;51.394;5.454;2022-10-16T05:05:44;7.88;;;7.68;;
26820;SDS011;37186;51.394;5.454;2022-10-16T05:08:46;8.02;;;7.82;;
26820;SDS011;37186;51.394;5.454;2022-10-16T05:11:46;7.88;;;7.68;;
26820;SDS011;37186;51.394;5.454;2022-10-16T05:14:47;7.80;;;7.60;;
26820;SDS011;37186;51.394;5.454;2022-10-16T05:17:47;8.50;;;8.30;;
26820;SDS011;37186;51.394;5.454;2022-10-16T05:20:51;8.15;;;7.95;;
26820;SDS011;37186;51.394;5.454;2022-10-16T05:23:52;7.78;;;7.57;;
26820;SDS011;37186;51.394;5.454;2022-10-16T05:26:54;8.10;;;7.90;;
26820;SDS011;37186;51.394;5.454;2022-10-16T05:29:55;8.25;;;8.05;;
26820;SDS011;37186;51.394;5.454;2022-10-16T05:32:55;8.10;;;7.90;;
26820;SDS011;37186;51.394;5.454;2022-10-16T05:35:56;8.02;;;7.82;;
26820;SDS011;37186;51.394;5.454;2022-10-16T05:38:56;7.78;;;7.57;;
26820;SDS011;37186;51.394;5.454;2022-10-16T05:41:57;8.10;;;7.90;;
26820;SDS011;37186;51.394;5.454;2022-10-16T05:44:57;8.07;;;7.87;;
26820;SDS011;37186;51.394;5.454;2022-10-16T05:47:58;7.85;;;7.65;;
26820;SDS011;37186;51.394;5.454;2022-10-16T05:51:06;7.90;;;7.70;;
26820;SDS011;37186;51.394;5.454;2022-10-16T05:54:08;7.60;;;7.40;;
26820;SDS011;37186;51.394;5.454;2022-10-16T05:57:09;7.60;;;7.40;;
26820;SDS011;37186;51.394;5.454;2022-10-16T06:00:10;7.43;;;7.23;;
26820;SDS011;37186;51.394;5.454;2022-10-16T06:03:10;7.22;;;7.03;;
26820;SDS011;37186;51.394;5.454;2022-10-16T06:06:12;7.43;;;7.22;;
26820;SDS011;37186;51.394;5.454;2022-10-16T06:09:17;7.70;;;7.50;;
26820;SDS011;37186;51.394;5.454;2022-10-16T06:12:17;7.35;;;7.15;;
26820;SDS011;37186;51.394;5.454;2022-10-16T06:15:18;7.47;;;7.27;;
26820;SDS011;37186;51.394;5.454;2022-10-16T06:18:18;7.37;;;7.17;;
26820;SDS011;37186;51.394;5.454;2022-10-16T06:21:20;7.43;;;7.23;;
26820;SDS011;37186;51.394;5.454;2022-10-16T06:24:24;7.30;;;7.10;;
26820;SDS011;37186;51.394;5.454;2022-10-16T06:27:25;7.20;;;7.00;;
26820;SDS011;37186;51.394;5.454;2022-10-16T06:30:26;7.53;;;7.32;;
26820;SDS011;37186;51.394;5.454;2022-10-16T06:33:26;7.13;;;6.93;;
26820;SDS011;37186;51.394;5.454;2022-10-16T06:36:27;7.25;;;7.05;;
26820;SDS011;37186;51.394;5.454;2022-10-16T06:39:27;7.53;;;7.32;;
26820;SDS011;37186;51.394;5.454;2022-10-16T06:42:28;7.22;;;7.03;;
26820;SDS011;37186;51.394;5.454;2022-10-16T06:45:28;7.50;;;7.30;;
26820;SDS011;37186;51.394;5.454;2022-10-16T06:48:29;7.10;;;6.90;;
26820;SDS011;37186;51.394;5.454;2022-10-16T06:51:30;7.30;;;7.10;;
26820;SDS011;37186;51.394;5.454;2022-10-16T06:54:32;7.33;;;7.13;;
26820;SDS011;37186;51.394;5.454;2022-10-16T06:57:32;7.60;;;7.40;;
26820;SDS011;37186;51.394;5.454;2022-10-16T07:00:33;7.87;;;7.67;;
26820;SDS011;37186;51.394;5.454;2022-10-16T07:03:35;7.85;;;7.65;;
26820;SDS011;37186;51.394;5.454;2022-10-16T07:06:37;7.95;;;7.75;;
26820;SDS011;37186;51.394;5.454;2022-10-16T07:09:38;8.18;;;7.97;;
26820;SDS011;37186;51.394;5.454;2022-10-16T07:12:38;8.23;;;8.02;;
26820;SDS011;37186;51.394;5.454;2022-10-16T07:15:39;8.63;;;8.40;;
26820;SDS011;37186;51.394;5.454;2022-10-16T07:18:40;8.60;;;8.37;;
26820;SDS011;37186;51.394;5.454;2022-10-16T07:21:42;8.05;;;7.85;;
26820;SDS011;37186;51.394;5.454;2022-10-16T07:24:43;8.38;;;8.18;;
26820;SDS011;37186;51.394;5.454;2022-10-16T07:27:44;8.87;;;8.60;;
26820;SDS011;37186;51.394;5.454;2022-10-16T07:30:44;8.68;;;8.45;;
26820;SDS011;37186;51.394;5.454;2022-10-16T07:33:46;8.52;;;8.32;;
26820;SDS011;37186;51.394;5.454;2022-10-16T07:36:48;9.20;;;8.90;;
26820;SDS011;37186;51.394;5.454;2022-10-16T07:39:49;8.95;;;8.70;;
26820;SDS011;37186;51.394;5.454;2022-10-16T07:42:50;8.90;;;8.63;;
26820;SDS011;37186;51.394;5.454;2022-10-16T07:45:50;8.63;;;8.43;;
26820;SDS011;37186;51.394;5.454;2022-10-16T07:48:51;8.68;;;8.48;;
26820;SDS011;37186;51.394;5.454;2022-10-16T07:51:51;8.10;;;7.90;;
26820;SDS011;37186;51.394;5.454;2022-10-16T07:54:52;7.65;;;7.45;;
26820;SDS011;37186;51.394;5.454;2022-10-16T07:57:52;7.50;;;7.30;;
26820;SDS011;37186;51.394;5.454;2022-10-16T08:00:54;7.68;;;7.47;;
26820;SDS011;37186;51.394;5.454;2022-10-16T08:03:56;7.05;;;6.85;;
26820;SDS011;37186;51.394;5.454;2022-10-16T08:06:56;7.13;;;6.93;;
26820;SDS011;37186;51.394;5.454;2022-10-16T08:09:57;7.03;;;6.82;;
26820;SDS011;37186;51.394;5.454;2022-10-16T08:12:58;7.18;;;6.97;;
26820;SDS011;37186;51.394;5.454;2022-10-16T08:15:59;7.18;;;6.97;;
26820;SDS011;37186;51.394;5.454;2022-10-16T08:18:59;7.18;;;6.97;;
26820;SDS011;37186;51.394;5.454;2022-10-16T08:22:00;6.90;;;6.70;;
26820;SDS011;37186;51.394;5.454;2022-10-16T08:25:01;7.10;;;6.90;;
26820;SDS011;37186;51.394;5.454;2022-10-16T08:28:05;7.35;;;7.15;;
26820;SDS011;37186;51.394;5.454;2022-10-16T08:31:12;7.03;;;6.82;;
26820;SDS011;37186;51.394;5.454;2022-10-16T08:34:13;6.90;;;6.70;;
26820;SDS011;37186;51.394;5.454;2022-10-16T08:37:14;7.35;;;7.15;;
26820;SDS011;37186;51.394;5.454;2022-10-16T08:40:36;7.13;;;6.93;;
26820;SDS011;37186;51.394;5.454;2022-10-16T08:47:18;7.20;;;7.00;;
26820;SDS011;37186;51.394;5.454;2022-10-16T08:50:26;7.30;;;7.10;;
26820;SDS011;37186;51.394;5.454;2022-10-16T08:54:02;6.82;;;6.63;;
26820;SDS011;37186;51.394;5.454;2022-10-16T08:56:57;6.90;;;6.70;;
26820;SDS011;37186;51.394;5.454;2022-10-16T09:00:14;6.90;;;6.70;;
26820;SDS011;37186;51.394;5.454;2022-10-16T09:13:10;6.90;;;6.70;;
26820;SDS011;37186;51.394;5.454;2022-10-16T09:16:27;7.03;;;6.82;;
26820;SDS011;37186;51.394;5.454;2022-10-16T09:19:36;6.85;;;6.65;;
26820;SDS011;37186;51.394;5.454;2022-10-16T09:22:41;6.93;;;6.72;;
26820;SDS011;37186;51.394;5.454;2022-10-16T09:25:43;6.75;;;6.55;;
26820;SDS011;37186;51.394;5.454;2022-10-16T09:28:47;6.88;;;6.68;;
26820;SDS011;37186;51.394;5.454;2022-10-16T09:31:48;6.72;;;6.53;;
26820;SDS011;37186;51.394;5.454;2022-10-16T09:34:49;6.47;;;6.28;;
26820;SDS011;37186;51.394;5.454;2022-10-16T09:37:54;6.78;;;6.57;;
26820;SDS011;37186;51.394;5.454;2022-10-16T09:40:58;6.20;;;6.00;;
26820;SDS011;37186;51.394;5.454;2022-10-16T09:44:01;6.10;;;5.90;;
26820;SDS011;37186;51.394;5.454;2022-10-16T09:47:17;6.15;;;5.95;;
26820;SDS011;37186;51.394;5.454;2022-10-16T09:50:22;6.40;;;6.20;;
26820;SDS011;37186;51.394;5.454;2022-10-16T09:53:37;5.90;;;5.70;;
26820;SDS011;37186;51.394;5.454;2022-10-16T09:56:40;6.00;;;5.80;;
26820;SDS011;37186;51.394;5.454;2022-10-16T09:59:54;5.95;;;5.75;;
26820;SDS011;37186;51.394;5.454;2022-10-16T10:02:56;6.00;;;5.80;;
26820;SDS011;37186;51.394;5.454;2022-10-16T10:05:57;6.30;;;6.10;;
26820;SDS011;37186;51.394;5.454;2022-10-16T10:08:58;5.88;;;5.68;;
26820;SDS011;37186;51.394;5.454;2022-10-16T10:12:41;5.80;;;5.65;;
26820;SDS011;37186;51.394;5.454;2022-10-16T10:15:42;5.80;;;5.65;;
26820;SDS011;37186;51.394;5.454;2022-10-16T10:18:42;6.07;;;5.88;;
26820;SDS011;37186;51.394;5.454;2022-10-16T10:21:43;6.35;;;6.15;;
26820;SDS011;37186;51.394;5.454;2022-10-16T10:24:44;5.90;;;5.70;;
26820;SDS011;37186;51.394;5.454;2022-10-16T10:27:58;6.03;;;5.82;;
26820;SDS011;37186;51.394;5.454;2022-10-16T10:31:03;6.30;;;6.10;;
26820;SDS011;37186;51.394;5.454;2022-10-16T10:34:33;5.78;;;5.63;;
26820;SDS011;37186;51.394;5.454;2022-10-16T10:38:16;5.60;;;5.50;;
26820;SDS011;37186;51.394;5.454;2022-10-16T10:48:24;6.13;;;5.93;;
26820;SDS011;37186;51.394;5.454;2022-10-16T11:01:59;6.53;;;6.32;;
26820;SDS011;37186;51.394;5.454;2022-10-16T11:09:00;6.80;;;6.60;;
26820;SDS011;37186;51.394;5.454;2022-10-16T11:12:29;8.10;;;7.90;;
26820;SDS011;37186;51.394;5.454;2022-10-16T11:15:37;7.90;;;7.70;;
26820;SDS011;37186;51.394;5.454;2022-10-16T11:21:51;7.97;;;7.78;;
26820;SDS011;37186;51.394;5.454;2022-10-16T11:28:18;8.35;;;8.15;;
26820;SDS011;37186;51.394;5.454;2022-10-16T11:31:25;8.38;;;8.18;;
26820;SDS011;37186;51.394;5.454;2022-10-16T11:34:34;9.52;;;9.23;;
26820;SDS011;37186;51.394;5.454;2022-10-16T11:37:42;9.13;;;8.85;;
26820;SDS011;37186;51.394;5.454;2022-10-16T11:40:45;11.32;;;11.00;;
26820;SDS011;37186;51.394;5.454;2022-10-16T11:43:52;9.48;;;9.18;;
26820;SDS011;37186;51.394;5.454;2022-10-16T11:50:20;9.35;;;9.05;;
26820;SDS011;37186;51.394;5.454;2022-10-16T11:53:43;9.15;;;8.88;;
26820;SDS011;37186;51.394;5.454;2022-10-16T11:56:52;11.07;;;10.77;;
26820;SDS011;37186;51.394;5.454;2022-10-16T11:59:58;13.80;;;13.40;;
26820;SDS011;37186;51.394;5.454;2022-10-16T12:03:12;16.00;;;15.50;;
26820;SDS011;37186;51.394;5.454;2022-10-16T12:06:23;15.32;;;14.82;;
26820;SDS011;37186;51.394;5.454;2022-10-16T12:09:39;17.67;;;17.10;;
26820;SDS011;37186;51.394;5.454;2022-10-16T12:12:40;18.30;;;17.70;;
26820;SDS011;37186;51.394;5.454;2022-10-16T12:15:41;18.95;;;18.35;;
26820;SDS011;37186;51.394;5.454;2022-10-16T12:18:45;17.98;;;17.38;;
26820;SDS011;37186;51.394;5.454;2022-10-16T12:21:46;17.50;;;16.98;;
26820;SDS011;37186;51.394;5.454;2022-10-16T12:24:50;12.50;;;12.10;;
26820;SDS011;37186;51.394;5.454;2022-10-16T12:28:02;12.55;;;12.15;;
26820;SDS011;37186;51.394;5.454;2022-10-16T12:31:15;12.55;;;12.15;;
26820;SDS011;37186;51.394;5.454;2022-10-16T12:34:22;12.60;;;12.20;;
26820;SDS011;37186;51.394;5.454;2022-10-16T12:37:35;12.38;;;11.98;;
26820;SDS011;37186;51.394;5.454;2022-10-16T12:40:37;12.60;;;12.20;;
26820;SDS011;37186;51.394;5.454;2022-10-16T12:43:41;12.52;;;12.13;;
26820;SDS011;37186;51.394;5.454;2022-10-16T12:46:46;12.50;;;12.10;;
26820;SDS011;37186;51.394;5.454;2022-10-16T12:49:51;12.50;;;12.10;;
26820;SDS011;37186;51.394;5.454;2022-10-16T12:52:53;12.25;;;11.85;;
26820;SDS011;37186;51.394;5.454;2022-10-16T13:12:09;11.60;;;11.30;;
26820;SDS011;37186;51.394;5.454;2022-10-16T13:15:26;13.50;;;13.10;;
26820;SDS011;37186;51.394;5.454;2022-10-16T13:19:03;14.48;;;14.07;;
26820;SDS011;37186;51.394;5.454;2022-10-16T13:28:31;17.30;;;16.80;;
26820;SDS011;37186;51.394;5.454;2022-10-16T13:31:36;18.08;;;17.48;;
26820;SDS011;37186;51.394;5.454;2022-10-16T13:34:45;18.33;;;17.73;;
26820;SDS011;37186;51.394;5.454;2022-10-16T13:37:48;18.33;;;17.73;;
26820;SDS011;37186;51.394;5.454;2022-10-16T13:40:51;19.77;;;19.17;;
26820;SDS011;37186;51.394;5.454;2022-10-16T13:44:05;19.75;;;19.15;;
26820;SDS011;37186;51.394;5.454;2022-10-16T13:47:22;20.13;;;19.52;;
26820;SDS011;37186;51.394;5.454;2022-10-16T13:50:27;20.60;;;19.90;;
26820;SDS011;37186;51.394;5.454;2022-10-16T13:53:33;19.83;;;19.23;;
26820;SDS011;37186;51.394;5.454;2022-10-16T13:56:34;20.15;;;19.55;;
26820;SDS011;37186;51.394;5.454;2022-10-16T13:59:36;19.13;;;18.52;;
26820;SDS011;37186;51.394;5.454;2022-10-16T14:02:38;18.05;;;17.45;;
26820;SDS011;37186;51.394;5.454;2022-10-16T14:05:43;18.55;;;17.95;;
26820;SDS011;37186;51.394;5.454;2022-10-16T14:08:49;17.65;;;17.08;;
26820;SDS011;37186;51.394;5.454;2022-10-16T14:12:03;17.00;;;16.50;;
26820;SDS011;37186;51.394;5.454;2022-10-16T14:15:15;16.27;;;15.77;;
26820;SDS011;37186;51.394;5.454;2022-10-16T14:18:19;17.02;;;16.52;;
26820;SDS011;37186;51.394;5.454;2022-10-16T14:21:22;17.35;;;16.85;;
26820;SDS011;37186;51.394;5.454;2022-10-16T14:24:42;17.77;;;17.17;;
26820;SDS011;37186;51.394;5.454;2022-10-16T14:27:42;16.35;;;15.85;;
26820;SDS011;37186;51.394;5.454;2022-10-16T14:30:50;18.48;;;17.88;;
26820;SDS011;37186;51.394;5.454;2022-10-16T14:33:53;17.77;;;17.17;;
26820;SDS011;37186;51.394;5.454;2022-10-16T14:36:54;17.65;;;17.08;;
26820;SDS011;37186;51.394;5.454;2022-10-16T14:39:56;19.30;;;18.70;;
26820;SDS011;37186;51.394;5.454;2022-10-16T14:42:57;19.15;;;18.55;;
26820;SDS011;37186;51.394;5.454;2022-10-16T14:45:58;18.98;;;18.38;;
26820;SDS011;37186;51.394;5.454;2022-10-16T14:52:12;19.92;;;19.33;;
26820;SDS011;37186;51.394;5.454;2022-10-16T14:55:13;19.63;;;19.02;;
26820;SDS011;37186;51.394;5.454;2022-10-16T14:58:21;19.58;;;18.98;;
26820;SDS011;37186;51.394;5.454;2022-10-16T15:01:22;20.10;;;19.48;;
26820;SDS011;37186;51.394;5.454;2022-10-16T15:04:23;20.90;;;20.20;;
26820;SDS011;37186;51.394;5.454;2022-10-16T15:07:24;19.25;;;18.65;;
26820;SDS011;37186;51.394;5.454;2022-10-16T15:10:25;20.20;;;19.58;;
26820;SDS011;37186;51.394;5.454;2022-10-16T15:13:27;19.60;;;19.00;;
26820;SDS011;37186;51.394;5.454;2022-10-16T15:16:28;19.80;;;19.20;;
26820;SDS011;37186;51.394;5.454;2022-10-16T15:19:29;18.77;;;18.17;;
26820;SDS011;37186;51.394;5.454;2022-10-16T15:22:30;18.77;;;18.17;;
26820;SDS011;37186;51.394;5.454;2022-10-16T15:25:41;19.50;;;18.90;;
26820;SDS011;37186;51.394;5.454;2022-10-16T15:28:44;18.35;;;17.75;;
26820;SDS011;37186;51.394;5.454;2022-10-16T15:31:44;18.13;;;17.52;;
26820;SDS011;37186;51.394;5.454;2022-10-16T15:34:47;17.48;;;16.95;;
26820;SDS011;37186;51.394;5.454;2022-10-16T15:37:47;18.83;;;18.23;;
26820;SDS011;37186;51.394;5.454;2022-10-16T15:40:49;18.77;;;18.17;;
26820;SDS011;37186;51.394;5.454;2022-10-16T15:43:50;17.20;;;16.70;;
26820;SDS011;37186;51.394;5.454;2022-10-16T15:46:51;18.13;;;17.52;;
26820;SDS011;37186;51.394;5.454;2022-10-16T15:49:54;17.05;;;16.55;;
26820;SDS011;37186;51.394;5.454;2022-10-16T15:52:55;17.52;;;16.98;;
26820;SDS011;37186;51.394;5.454;2022-10-16T15:55:55;17.13;;;16.63;;
26820;SDS011;37186;51.394;5.454;2022-10-16T15:58:56;16.30;;;15.80;;
26820;SDS011;37186;51.394;5.454;2022-10-16T16:01:58;16.75;;;16.25;;
26820;SDS011;37186;51.394;5.454;2022-10-16T16:04:58;15.98;;;15.48;;
26820;SDS011;37186;51.394;5.454;2022-10-16T16:07:59;16.13;;;15.63;;
26820;SDS011;37186;51.394;5.454;2022-10-16T16:11:04;15.23;;;14.73;;
26820;SDS011;37186;51.394;5.454;2022-10-16T16:14:12;14.95;;;14.48;;
26820;SDS011;37186;51.394;5.454;2022-10-16T16:17:13;14.75;;;14.30;;
26820;SDS011;37186;51.394;5.454;2022-10-16T16:20:14;14.73;;;14.27;;
26820;SDS011;37186;51.394;5.454;2022-10-16T16:23:15;15.18;;;14.68;;
26820;SDS011;37186;51.394;5.454;2022-10-16T16:26:23;14.38;;;13.98;;
26820;SDS011;37186;51.394;5.454;2022-10-16T16:29:25;14.07;;;13.68;;
26820;SDS011;37186;51.394;5.454;2022-10-16T16:32:26;14.18;;;13.77;;
26820;SDS011;37186;51.394;5.454;2022-10-16T16:35:26;13.88;;;13.48;;
26820;SDS011;37186;51.394;5.454;2022-10-16T16:38:27;13.13;;;12.73;;
26820;SDS011;37186;51.394;5.454;2022-10-16T16:41:28;13.38;;;12.98;;
26820;SDS011;37186;51.394;5.454;2022-10-16T16:44:30;13.82;;;13.43;;
26820;SDS011;37186;51.394;5.454;2022-10-16T16:47:30;13.02;;;12.63;;
26820;SDS011;37186;51.394;5.454;2022-10-16T16:50:34;12.30;;;11.90;;
26820;SDS011;37186;51.394;5.454;2022-10-16T16:53:35;13.13;;;12.73;;
26820;SDS011;37186;51.394;5.454;2022-10-16T16:56:36;11.50;;;11.20;;
26820;SDS011;37186;51.394;5.454;2022-10-16T16:59:37;11.48;;;11.18;;
26820;SDS011;37186;51.394;5.454;2022-10-16T17:02:37;11.85;;;11.50;;
26820;SDS011;37186;51.394;5.454;2022-10-16T17:05:42;11.50;;;11.20;;
26820;SDS011;37186;51.394;5.454;2022-10-16T17:08:43;11.13;;;10.82;;
26820;SDS011;37186;51.394;5.454;2022-10-16T17:11:44;10.65;;;10.35;;
26820;SDS011;37186;51.394;5.454;2022-10-16T17:14:45;10.65;;;10.35;;
26820;SDS011;37186;51.394;5.454;2022-10-16T17:17:46;11.18;;;10.88;;
26820;SDS011;37186;51.394;5.454;2022-10-16T17:20:46;10.82;;;10.52;;
26820;SDS011;37186;51.394;5.454;2022-10-16T17:23:50;10.88;;;10.57;;
26820;SDS011;37186;51.394;5.454;2022-10-16T17:26:51;10.65;;;10.35;;
26820;SDS011;37186;51.394;5.454;2022-10-16T17:29:52;10.18;;;9.88;;
26820;SDS011;37186;51.394;5.454;2022-10-16T17:32:52;10.65;;;10.35;;
26820;SDS011;37186;51.394;5.454;2022-10-16T17:35:53;10.55;;;10.25;;
26820;SDS011;37186;51.394;5.454;2022-10-16T17:38:53;10.02;;;9.73;;
26820;SDS011;37186;51.394;5.454;2022-10-16T17:41:54;9.80;;;9.50;;
26820;SDS011;37186;51.394;5.454;2022-10-16T17:44:55;10.13;;;9.82;;
26820;SDS011;37186;51.394;5.454;2022-10-16T17:47:57;9.98;;;9.68;;
26820;SDS011;37186;51.394;5.454;2022-10-16T17:50:58;9.82;;;9.52;;
26820;SDS011;37186;51.394;5.454;2022-10-16T17:53:59;10.10;;;9.80;;
26820;SDS011;37186;51.394;5.454;2022-10-16T17:57:00;9.75;;;9.45;;
26820;SDS011;37186;51.394;5.454;2022-10-16T18:00:00;10.50;;;10.20;;
26820;SDS011;37186;51.394;5.454;2022-10-16T18:03:04;9.98;;;9.68;;
26820;SDS011;37186;51.394;5.454;2022-10-16T18:06:05;9.80;;;9.50;;
26820;SDS011;37186;51.394;5.454;2022-10-16T18:09:06;9.57;;;9.27;;
26820;SDS011;37186;51.394;5.454;2022-10-16T18:12:07;9.82;;;9.52;;
26820;SDS011;37186;51.394;5.454;2022-10-16T18:15:08;10.07;;;9.77;;
26820;SDS011;37186;51.394;5.454;2022-10-16T18:18:09;9.88;;;9.57;;
26820;SDS011;37186;51.394;5.454;2022-10-16T18:21:11;10.40;;;10.10;;
26820;SDS011;37186;51.394;5.454;2022-10-16T18:24:14;10.40;;;10.10;;
26820;SDS011;37186;51.394;5.454;2022-10-16T18:27:15;10.02;;;9.73;;
26820;SDS011;37186;51.394;5.454;2022-10-16T18:30:16;10.00;;;9.70;;
26820;SDS011;37186;51.394;5.454;2022-10-16T18:33:16;9.57;;;9.27;;
26820;SDS011;37186;51.394;5.454;2022-10-16T18:36:18;9.52;;;9.23;;
26820;SDS011;37186;51.394;5.454;2022-10-16T18:39:20;10.57;;;10.27;;
26820;SDS011;37186;51.394;5.454;2022-10-16T18:42:22;9.68;;;9.38;;
26820;SDS011;37186;51.394;5.454;2022-10-16T18:45:23;10.18;;;9.88;;
26820;SDS011;37186;51.394;5.454;2022-10-16T18:48:23;10.32;;;10.02;;
26820;SDS011;37186;51.394;5.454;2022-10-16T18:51:25;9.90;;;9.60;;
26820;SDS011;37186;51.394;5.454;2022-10-16T18:54:28;9.88;;;9.57;;
26820;SDS011;37186;51.394;5.454;2022-10-16T18:57:29;10.05;;;9.75;;
26820;SDS011;37186;51.394;5.454;2022-10-16T19:00:30;9.57;;;9.27;;
26820;SDS011;37186;51.394;5.454;2022-10-16T19:03:31;10.15;;;9.85;;
26820;SDS011;37186;51.394;5.454;2022-10-16T19:06:32;9.63;;;9.32;;
26820;SDS011;37186;51.394;5.454;2022-10-16T19:09:38;10.25;;;9.95;;
26820;SDS011;37186;51.394;5.454;2022-10-16T19:12:38;9.82;;;9.52;;
26820;SDS011;37186;51.394;5.454;2022-10-16T19:15:40;10.02;;;9.73;;
26820;SDS011;37186;51.394;5.454;2022-10-16T19:18:42;9.98;;;9.68;;
26820;SDS011;37186;51.394;5.454;2022-10-16T19:21:42;9.65;;;9.35;;
26820;SDS011;37186;51.394;5.454;2022-10-16T19:24:43;9.73;;;9.43;;
26820;SDS011;37186;51.394;5.454;2022-10-16T19:27:43;10.32;;;10.02;;
26820;SDS011;37186;51.394;5.454;2022-10-16T19:30:44;10.65;;;10.35;;